Time;durP1;ratioP1;P1;durP2;ratioP2;P2;SDS_P1;SDS_P2;PMS_P1;PMS_P2;Temp;Humidity;BMP_temperature;BMP_pressure;BME280_temperature;BME280_humidity;BME280_pressure;Samples;Min_cycle;Max_cycle;Signal;HPM_P1;HPM_P2
2022/08/29 00:01:35;;;;;;;10.10;7.90;;;;;;;21.22;69.00;99766.38;107489;1271;95301;-67
2022/08/29 00:04:07;;;;;;;12.20;8.50;;;;;;;21.28;68.92;99763.04;107712;1271;139761;-67
2022/08/29 00:06:39;;;;;;;10.60;8.10;;;;;;;21.34;68.94;99768.21;107164;1271;107846;-67
2022/08/29 00:09:11;;;;;;;9.70;8.30;;;;;;;21.38;68.77;99768.59;106158;1271;138287;-68
2022/08/29 00:11:44;;;;;;;10.50;7.60;;;;;;;21.41;68.83;99761.30;107506;1271;96334;-66
2022/08/29 00:14:17;;;;;;;11.00;8.60;;;;;;;21.42;68.74;99756.91;107622;1271;138229;-66
2022/08/29 00:16:54;;;;;;;10.70;8.20;;;;;;;21.43;68.79;99757.90;106287;1273;109736;-66
2022/08/29 00:19:26;;;;;;;10.70;8.70;;;;;;;21.46;68.72;99765.81;107366;1271;108898;-67
2022/08/29 00:21:58;;;;;;;12.20;7.80;;;;;;;21.45;68.40;99772.56;107709;1271;138950;-66
2022/08/29 00:24:30;;;;;;;9.20;8.30;;;;;;;21.40;68.34;99771.04;107833;1271;94779;-67
2022/08/29 00:27:02;;;;;;;11.70;8.40;;;;;;;21.36;68.16;99765.60;107672;1271;137837;-67
2022/08/29 00:29:35;;;;;;;9.90;8.80;;;;;;;21.33;68.43;99762.98;107727;1272;111276;-67
2022/08/29 00:32:07;;;;;;;11.40;8.70;;;;;;;21.32;68.73;99761.27;107117;1271;139979;-66
2022/08/29 00:34:39;;;;;;;10.70;9.10;;;;;;;21.34;69.13;99757.95;107753;1273;108853;-67
2022/08/29 00:37:11;;;;;;;10.20;9.10;;;;;;;21.33;69.14;99755.75;107701;1272;94954;-67
2022/08/29 00:39:43;;;;;;;11.00;9.60;;;;;;;21.29;68.99;99758.19;106641;1272;139311;-67
2022/08/29 00:42:15;;;;;;;10.20;8.50;;;;;;;21.23;69.13;99750.61;107725;1273;111059;-67
2022/08/29 00:44:47;;;;;;;9.80;8.60;;;;;;;21.21;69.02;99756.59;106605;1272;139573;-67
2022/08/29 00:47:22;;;;;;;10.80;9.30;;;;;;;21.21;69.60;99756.60;106516;1273;109044;-67
2022/08/29 00:49:57;;;;;;;10.50;8.90;;;;;;;21.19;69.42;99754.98;107479;1273;94714;-67
2022/08/29 00:52:34;;;;;;;11.00;9.80;;;;;;;21.14;69.55;99750.80;106879;1273;138390;-67
2022/08/29 00:55:11;;;;;;;10.70;9.00;;;;;;;21.06;69.52;99752.33;106448;1272;111058;-66
2022/08/29 00:57:48;;;;;;;12.80;9.60;;;;;;;21.01;69.85;99748.35;107634;1273;138577;-67
2022/08/29 01:00:20;;;;;;;10.50;9.40;;;;;;;20.94;69.85;99749.80;106425;1273;109054;-67
2022/08/29 01:02:53;;;;;;;11.20;9.50;;;;;;;20.85;69.97;99747.22;106362;1271;139271;-67
2022/08/29 01:05:26;;;;;;;11.90;9.80;;;;;;;20.77;70.40;99745.00;107796;1271;94623;-67
2022/08/29 01:07:59;;;;;;;15.40;9.60;;;;;;;20.70;70.55;99742.96;106980;1271;110660;-67
2022/08/29 01:13:22;;;;;;;12.40;9.70;;;;;;;20.57;71.21;99745.09;106669;1271;106443;-67
2022/08/29 01:15:54;;;;;;;13.20;10.00;;;;;;;20.51;71.34;99748.39;106166;1272;138433;-67
2022/08/29 01:18:29;;;;;;;12.30;11.00;;;;;;;20.45;71.48;99749.23;106223;1273;96631;-67
2022/08/29 01:21:08;;;;;;;14.10;11.00;;;;;;;20.38;71.80;99752.41;106093;1274;138131;-67
2022/08/29 01:23:47;;;;;;;16.20;11.40;;;;;;;20.31;72.02;99748.41;106675;1273;108968;-67
2022/08/29 01:26:19;;;;;;;13.30;11.90;;;;;;;20.25;72.35;99746.79;106890;1271;140008;-67
2022/08/29 01:28:54;;;;;;;16.00;12.40;;;;;;;20.23;72.92;99750.59;107810;1271;96555;-68
2022/08/29 01:31:28;;;;;;;14.40;13.00;;;;;;;20.21;73.10;99748.84;106703;1271;96546;-68
2022/08/29 01:34:21;;;;;;;15.10;13.10;;;;;;;20.18;73.57;99751.00;107641;1273;138843;-68
2022/08/29 01:36:56;;;;;;;14.00;12.30;;;;;;;20.14;73.73;99746.44;106761;1273;108782;-67
2022/08/29 01:39:30;;;;;;;16.30;12.90;;;;;;;20.10;74.02;99744.62;106682;1271;138522;-67
2022/08/29 01:42:05;;;;;;;16.20;13.20;;;;;;;20.07;74.11;99741.66;107776;1271;94547;-68
2022/08/29 01:44:37;;;;;;;19.10;14.50;;;;;;;20.06;74.44;99736.98;107454;1271;139049;-67
2022/08/29 01:47:10;;;;;;;16.90;14.00;;;;;;;20.08;74.31;99739.30;106295;1271;111173;-67
2022/08/29 01:49:45;;;;;;;19.20;14.40;;;;;;;20.09;74.67;99744.54;106693;1271;108827;-67
2022/08/29 01:52:18;;;;;;;15.60;14.00;;;;;;;20.09;74.79;99743.81;107084;1271;138428;-67
2022/08/29 01:54:50;;;;;;;17.50;15.40;;;;;;;20.09;74.75;99742.23;106398;1271;96481;-66
2022/08/29 01:57:22;;;;;;;18.60;16.10;;;;;;;20.07;74.84;99742.93;106849;1271;138576;-66
2022/08/29 01:59:55;;;;;;;22.00;18.10;;;;;;;20.04;75.16;99746.48;107824;1271;111098;-67
2022/08/29 02:02:29;;;;;;;24.00;19.20;;;;;;;20.03;75.21;99752.98;107717;1271;138549;-67
2022/08/29 02:05:00;;;;;;;24.70;21.10;;;;;;;20.02;75.56;99753.72;107741;1271;109329;-67
2022/08/29 02:07:32;;;;;;;30.30;25.30;;;;;;;20.03;75.59;99753.65;107813;1271;94830;-67
2022/08/29 02:10:07;;;;;;;28.90;23.50;;;;;;;20.02;75.59;99753.70;107621;1271;138173;-66
2022/08/29 02:12:39;;;;;;;29.80;24.90;;;;;;;20.05;75.67;99754.52;107717;1274;110142;-66
2022/08/29 02:15:13;;;;;;;31.60;26.00;;;;;;;20.07;75.80;99755.11;106861;1273;139604;-66
2022/08/29 02:17:45;;;;;;;27.60;23.80;;;;;;;20.06;75.58;99757.84;107712;1272;108826;-66
2022/08/29 02:20:19;;;;;;;28.50;24.00;;;;;;;20.05;75.71;99759.33;107599;1274;139808;-66
2022/08/29 02:22:51;;;;;;;33.50;24.30;;;;;;;20.04;75.69;99761.14;107254;1273;94652;-66
2022/08/29 02:25:41;;;;;;;33.70;24.70;;;;;;;20.03;75.76;99762.30;106231;1274;111129;-66
2022/08/29 02:28:16;;;;;;;29.90;22.10;;;;;;;20.03;76.00;99759.45;106101;1274;138350;-67
2022/08/29 02:30:51;;;;;;;28.40;23.20;;;;;;;20.02;75.98;99764.66;106729;1273;109443;-66
2022/08/29 02:33:28;;;;;;;27.00;22.30;;;;;;;20.02;76.28;99769.05;106074;1274;139367;-66
2022/08/29 02:36:03;;;;;;;26.20;23.00;;;;;;;20.02;76.27;99767.17;106254;1274;96505;-67
2022/08/29 02:38:35;;;;;;;25.70;23.00;;;;;;;20.02;76.37;99769.46;107631;1273;139830;-67
2022/08/29 02:41:07;;;;;;;28.70;23.30;;;;;;;20.03;76.51;99773.63;107747;1273;108250;-67
2022/08/29 02:43:44;;;;;;;26.40;22.00;;;;;;;20.01;76.65;99776.92;106742;1274;109278;-67
2022/08/29 02:46:19;;;;;;;27.00;22.50;;;;;;;20.05;76.65;99780.70;106128;1274;138672;-67
2022/08/29 02:48:51;;;;;;;29.10;23.10;;;;;;;20.09;76.88;99781.23;106192;1273;96520;-67
2022/08/29 02:51:33;;;;;;;30.80;24.20;;;;;;;20.11;76.94;99783.77;106078;1274;138350;-67
2022/08/29 02:54:05;;;;;;;28.40;23.90;;;;;;;20.11;76.82;99782.66;107712;1273;108826;-67
2022/08/29 02:56:38;;;;;;;29.10;24.80;;;;;;;20.13;77.04;99786.61;107603;1272;139102;-67
2022/08/29 02:59:10;;;;;;;29.20;24.20;;;;;;;20.14;76.82;99790.22;107696;1272;94845;-67
2022/08/29 03:01:42;;;;;;;28.40;25.30;;;;;;;20.14;76.90;99790.72;107731;1273;94684;-67
2022/08/29 03:04:14;;;;;;;34.80;26.60;;;;;;;20.15;76.97;99788.70;107618;1272;138866;-67
2022/08/29 03:06:45;;;;;;;30.90;26.70;;;;;;;20.17;77.13;99786.77;107715;1273;108937;-67
2022/08/29 03:09:17;;;;;;;30.40;26.40;;;;;;;20.17;77.00;99785.34;107582;1273;138984;-67
2022/08/29 03:11:51;;;;;;;37.80;28.30;;;;;;;20.19;77.11;99783.61;107721;1273;94765;-67
2022/08/29 03:14:23;;;;;;;35.90;29.70;;;;;;;20.19;77.17;99785.20;107358;1273;138410;-67
2022/08/29 03:16:55;;;;;;;37.80;30.70;;;;;;;20.18;77.13;99786.86;106209;1273;111288;-67
2022/08/29 03:19:27;;;;;;;35.00;29.80;;;;;;;20.19;77.13;99785.92;106133;1273;108108;-67
2022/08/29 03:22:00;;;;;;;38.00;30.40;;;;;;;20.22;77.42;99789.16;106587;1271;139371;-67
2022/08/29 03:24:33;;;;;;;38.40;30.90;;;;;;;20.22;77.28;99793.37;106274;1271;97932;-66
2022/08/29 03:27:06;;;;;;;39.20;30.10;;;;;;;20.23;77.36;99792.81;106166;1271;139480;-66
2022/08/29 03:29:38;;;;;;;37.70;30.40;;;;;;;20.25;77.53;99793.01;107221;1271;111224;-66
2022/08/29 03:32:10;;;;;;;34.80;29.20;;;;;;;20.25;77.70;99794.42;106169;1271;139088;-65
2022/08/29 03:34:42;;;;;;;37.10;29.00;;;;;;;20.26;77.69;99793.13;106251;1271;108737;-66
2022/08/29 03:37:14;;;;;;;33.90;27.00;;;;;;;20.27;77.53;99794.84;106275;1271;96484;-67
2022/08/29 03:39:46;;;;;;;36.80;27.90;;;;;;;20.27;77.88;99800.08;106168;1271;138519;-67
2022/08/29 03:42:18;;;;;;;34.20;26.50;;;;;;;20.28;77.69;99800.75;106239;1271;111239;-67
2022/08/29 03:44:50;;;;;;;35.10;26.70;;;;;;;20.28;77.85;99805.63;106136;1271;138480;-67
2022/08/29 03:47:22;;;;;;;30.20;24.70;;;;;;;20.31;78.04;99806.87;106152;1273;108987;-67
2022/08/29 03:49:54;;;;;;;29.80;23.80;;;;;;;20.34;78.09;99808.02;106160;1273;96486;-66
2022/08/29 03:52:26;;;;;;;30.00;23.00;;;;;;;20.35;78.01;99808.48;106157;1271;138446;-66
2022/08/29 03:54:59;;;;;;;33.30;22.10;;;;;;;20.35;78.23;99811.11;106244;1271;110866;-66
2022/08/29 03:57:32;;;;;;;28.20;22.70;;;;;;;20.37;78.41;99813.80;106146;1269;138463;-66
2022/08/29 04:00:10;;;;;;;27.10;21.70;;;;;;;20.39;78.11;99813.63;106427;1271;108826;-68
2022/08/29 04:02:43;;;;;;;25.60;20.40;;;;;;;20.41;78.24;99818.45;106548;1271;138615;-67
2022/08/29 04:05:16;;;;;;;21.40;18.20;;;;;;;20.44;78.30;99824.73;107533;1272;94690;-68
2022/08/29 04:07:52;;;;;;;20.40;18.10;;;;;;;20.50;78.20;99823.15;106514;1273;111242;-67
2022/08/29 04:10:27;;;;;;;24.20;18.30;;;;;;;20.56;77.74;99822.58;106115;1272;138320;-67
2022/08/29 04:13:00;;;;;;;22.20;18.60;;;;;;;20.58;77.69;99825.92;106186;1273;108950;-67
2022/08/29 04:15:32;;;;;;;20.30;17.20;;;;;;;20.61;77.34;99827.29;106091;1273;138432;-67
2022/08/29 04:18:07;;;;;;;17.90;16.10;;;;;;;20.63;77.43;99827.60;106214;1273;96595;-67
2022/08/29 04:20:43;;;;;;;20.20;16.20;;;;;;;20.67;77.16;99832.27;106128;1273;138405;-66
2022/08/29 04:23:16;;;;;;;22.10;17.30;;;;;;;20.69;77.12;99827.45;106290;1273;109041;-67
2022/08/29 04:25:48;;;;;;;20.60;17.40;;;;;;;20.68;76.89;99836.25;106220;1273;108848;-67
2022/08/29 04:28:20;;;;;;;19.80;16.50;;;;;;;20.65;76.74;99835.56;106147;1271;138272;-67
2022/08/29 04:30:53;;;;;;;19.80;16.70;;;;;;;20.66;76.99;99837.31;106298;1271;96484;-67
2022/08/29 04:33:26;;;;;;;17.90;16.00;;;;;;;20.65;76.90;99845.33;106142;1271;138171;-67
2022/08/29 04:35:58;;;;;;;17.50;15.60;;;;;;;20.65;76.89;99846.90;106236;1273;109021;-68
2022/08/29 04:38:30;;;;;;;17.40;14.00;;;;;;;20.65;76.74;99846.75;106061;1273;140018;-68
2022/08/29 04:41:06;;;;;;;17.40;14.50;;;;;;;20.68;76.89;99847.38;106171;1273;96490;-66
2022/08/29 04:43:39;;;;;;;17.00;14.40;;;;;;;20.67;76.68;99839.86;107700;1273;94558;-67
2022/08/29 04:46:11;;;;;;;14.20;12.70;;;;;;;20.64;76.69;99847.00;106238;1271;138213;-67
2022/08/29 04:48:55;;;;;;;12.70;11.40;;;;;;;20.63;76.56;99848.28;106216;1271;108086;-67
2022/08/29 04:51:35;;;;;;;11.90;10.50;;;;;;;20.60;76.55;99850.82;106125;1270;138465;-67
2022/08/29 04:54:08;;;;;;;11.40;10.30;;;;;;;20.59;76.42;99846.70;106264;1271;96487;-67
2022/08/29 04:56:40;;;;;;;13.90;9.60;;;;;;;20.60;76.37;99855.08;106162;1271;138583;-67
2022/08/29 04:59:18;;;;;;;10.30;9.20;;;;;;;20.61;76.41;99851.64;106679;1273;109950;-67
2022/08/29 05:01:51;;;;;;;9.00;8.00;;;;;;;20.59;76.33;99855.16;106192;1273;108935;-67
2022/08/29 05:04:23;;;;;;;9.60;7.10;;;;;;;20.57;76.10;99853.69;106087;1271;138612;-67
2022/08/29 05:06:55;;;;;;;8.10;6.10;;;;;;;20.57;75.86;99859.72;106199;1273;96654;-67
2022/08/29 05:09:27;;;;;;;6.80;5.60;;;;;;;20.62;76.07;99858.09;106134;1271;138062;-67
2022/08/29 05:11:59;;;;;;;4.70;4.20;;;;;;;20.69;75.73;99862.67;106270;1271;111235;-67
2022/08/29 05:14:31;;;;;;;4.50;4.10;;;;;;;20.70;75.31;99866.06;106251;1271;139220;-66
2022/08/29 05:17:03;;;;;;;6.40;4.60;;;;;;;20.71;75.08;99870.30;106244;1273;109189;-67
2022/08/29 05:19:37;;;;;;;4.70;4.20;;;;;;;20.70;75.02;99865.78;106167;1272;96542;-67
2022/08/29 05:22:18;;;;;;;6.90;3.60;;;;;;;20.67;74.96;99869.89;107484;1273;137900;-67
2022/08/29 05:24:51;;;;;;;4.70;3.40;;;;;;;20.70;74.77;99869.60;107740;1272;111389;-67
2022/08/29 05:27:23;;;;;;;4.20;3.50;;;;;;;20.74;74.64;99870.17;107603;1271;139097;-67
2022/08/29 05:29:57;;;;;;;5.20;3.70;;;;;;;20.74;74.41;99870.73;107340;1271;108839;-67
2022/08/29 05:32:29;;;;;;;3.70;3.40;;;;;;;20.77;74.39;99868.66;106347;1271;138247;-66
2022/08/29 05:35:02;;;;;;;4.90;4.40;;;;;;;20.84;74.24;99875.80;107736;1271;95477;-67
2022/08/29 05:37:35;;;;;;;3.80;3.50;;;;;;;20.85;73.83;99878.34;107300;1271;109747;-66
2022/08/29 05:40:09;;;;;;;4.60;3.70;;;;;;;20.86;73.69;99880.40;106116;1271;138228;-66
2022/08/29 05:42:41;;;;;;;4.40;4.00;;;;;;;20.85;73.48;99880.95;107715;1271;109527;-67
2022/08/29 05:45:13;;;;;;;4.20;3.80;;;;;;;20.81;73.30;99879.89;106481;1273;138081;-66
2022/08/29 05:47:45;;;;;;;6.70;4.60;;;;;;;20.76;73.16;99884.34;107013;1271;96483;-67
2022/08/29 05:50:18;;;;;;;5.20;4.50;;;;;;;20.74;73.26;99889.59;106035;1273;138033;-66
2022/08/29 05:52:50;;;;;;;5.70;4.50;;;;;;;20.73;73.25;99887.40;106162;1273;108964;-69
2022/08/29 05:55:22;;;;;;;5.20;4.70;;;;;;;20.75;73.35;99892.86;106124;1273;109430;-67
2022/08/29 05:57:54;;;;;;;5.40;4.40;;;;;;;20.77;73.17;99893.44;106050;1273;138113;-67
2022/08/29 06:00:26;;;;;;;5.10;4.60;;;;;;;20.79;73.38;99892.70;106174;1273;96390;-66
2022/08/29 06:02:58;;;;;;;8.10;4.80;;;;;;;20.84;73.34;99891.52;105986;1273;138007;-66
2022/08/29 06:05:31;;;;;;;6.70;5.00;;;;;;;20.87;73.15;99893.88;107774;1271;108999;-66
2022/08/29 06:08:03;;;;;;;5.30;4.80;;;;;;;20.92;73.12;99894.55;106835;1273;108161;-66
2022/08/29 06:10:39;;;;;;;6.40;5.60;;;;;;;20.99;73.31;99898.87;106227;1273;96486;-66
2022/08/29 06:13:11;;;;;;;5.80;5.30;;;;;;;21.06;72.98;99901.48;106109;1273;96527;-66
2022/08/29 06:15:45;;;;;;;5.90;5.30;;;;;;;21.10;72.80;99905.61;106070;1271;137971;-67
2022/08/29 06:18:17;;;;;;;6.00;4.80;;;;;;;21.12;72.81;99901.73;106116;1273;109106;-66
2022/08/29 06:20:58;;;;;;;10.80;5.20;;;;;;;21.20;72.62;99909.43;107053;1273;138041;-67
2022/08/29 06:23:30;;;;;;;6.60;5.50;;;;;;;21.30;72.66;99912.01;107645;1273;94683;-67
2022/08/29 06:26:02;;;;;;;6.10;5.40;;;;;;;21.41;72.30;99914.23;106782;1272;94866;-66
2022/08/29 06:28:36;;;;;;;5.80;5.30;;;;;;;21.46;71.98;99912.91;107633;1273;110994;-67
2022/08/29 06:31:11;;;;;;;9.20;6.10;;;;;;;21.52;71.89;99919.70;107386;1273;109020;-67
2022/08/29 06:33:43;;;;;;;7.80;5.50;;;;;;;21.60;71.64;99923.26;106258;1273;139176;-67
2022/08/29 06:36:16;;;;;;;6.60;5.70;;;;;;;21.66;71.36;99923.60;106661;1271;96459;-67
2022/08/29 06:38:48;;;;;;;7.70;6.40;;;;;;;21.71;71.10;99924.65;106474;1272;138030;-67
2022/08/29 06:41:20;;;;;;;7.20;6.50;;;;;;;21.72;70.87;99927.40;106180;1273;111139;-66
2022/08/29 06:43:54;;;;;;;8.60;6.50;;;;;;;21.66;70.74;99930.92;106495;1272;109918;-66
2022/08/29 06:46:29;;;;;;;8.80;6.50;;;;;;;21.61;70.74;99938.73;106402;1272;137872;-65
2022/08/29 06:49:03;;;;;;;9.30;7.30;;;;;;;21.60;70.91;99941.69;106134;1273;96458;-66
2022/08/29 06:51:37;;;;;;;13.10;7.40;;;;;;;21.55;70.78;99946.67;106132;1273;138069;-66
2022/08/29 06:54:10;;;;;;;7.90;7.10;;;;;;;21.54;70.88;99951.69;106465;1272;110172;-67
2022/08/29 06:56:44;;;;;;;8.50;7.40;;;;;;;21.54;70.89;99955.27;106940;1272;138222;-68
2022/08/29 06:59:17;;;;;;;10.00;7.00;;;;;;;21.53;70.97;99953.04;106130;1272;109823;-67
2022/08/29 07:01:49;;;;;;;8.30;7.00;;;;;;;21.54;71.04;99955.94;107041;1272;96459;-66
2022/08/29 07:04:21;;;;;;;10.50;8.40;;;;;;;21.55;70.94;99956.60;107525;1273;138052;-67
2022/08/29 07:06:57;;;;;;;10.80;8.90;;;;;;;21.59;70.88;99958.97;107685;1272;111281;-67
2022/08/29 07:09:31;;;;;;;10.80;7.50;;;;;;;21.62;70.94;99965.36;107132;1272;138341;-67
2022/08/29 07:12:04;;;;;;;12.30;7.00;;;;;;;21.67;70.83;99963.16;107647;1272;108848;-67
2022/08/29 07:14:36;;;;;;;9.30;6.90;;;;;;;21.68;70.59;99962.42;107537;1272;138521;-67
2022/08/29 07:17:09;;;;;;;11.30;7.70;;;;;;;21.74;70.33;99964.27;106654;1273;1357453;-67
2022/08/29 07:19:53;;;;;;;12.30;8.30;;;;;;;21.70;70.14;99970.90;107692;1272;111218;-67
2022/08/29 07:22:25;;;;;;;8.50;6.90;;;;;;;21.77;70.33;99967.34;107145;1272;139245;-67
2022/08/29 07:24:58;;;;;;;8.80;7.00;;;;;;;21.90;70.05;99972.09;107701;1273;108723;-66
2022/08/29 07:27:30;;;;;;;9.80;6.80;;;;;;;22.02;69.37;99973.37;107550;1273;138147;-65
2022/08/29 07:30:02;;;;;;;8.20;6.60;;;;;;;22.16;68.98;99977.00;107709;1272;94433;-66
2022/08/29 07:32:34;;;;;;;7.60;6.30;;;;;;;22.27;68.57;99979.73;107612;1273;138155;-66
2022/08/29 07:35:07;;;;;;;7.50;6.70;;;;;;;22.36;68.21;99983.66;107661;1273;108937;-66
2022/08/29 07:37:44;;;;;;;9.60;7.30;;;;;;;22.33;67.77;99988.29;107702;1273;108724;-66
2022/08/29 07:40:21;;;;;;;9.90;7.50;;;;;;;22.20;67.44;99988.31;107578;1272;138493;-66
2022/08/29 07:42:54;;;;;;;7.40;5.90;;;;;;;22.05;67.46;99986.98;107692;1273;94658;-67
2022/08/29 07:45:26;;;;;;;7.40;6.40;;;;;;;21.91;67.62;99997.85;107544;1273;139009;-66
2022/08/29 07:47:58;;;;;;;9.60;6.00;;;;;;;21.89;67.70;100006.15;106185;1271;109290;-67
2022/08/29 07:50:30;;;;;;;13.10;7.00;;;;;;;21.90;67.66;100006.42;107182;1272;138619;-67
2022/08/29 07:53:02;;;;;;;10.00;5.70;;;;;;;21.86;67.14;100009.38;107611;1273;94793;-67
2022/08/29 07:55:34;;;;;;;8.10;6.30;;;;;;;21.85;67.09;100007.39;106378;1273;96466;-67
2022/08/29 07:58:06;;;;;;;9.70;6.60;;;;;;;21.88;67.24;100011.70;106199;1272;138041;-67
2022/08/29 08:00:38;;;;;;;9.50;5.90;;;;;;;22.07;66.95;100005.52;107719;1272;109404;-67
2022/08/29 08:03:12;;;;;;;8.40;5.70;;;;;;;22.75;66.38;100008.78;107507;1273;138167;-67
2022/08/29 08:05:45;;;;;;;12.40;6.00;;;;;;;23.22;65.08;100009.26;107677;1272;94918;-68
2022/08/29 08:08:17;;;;;;;10.00;6.10;;;;;;;23.40;64.21;100006.77;107567;1272;138464;-68
2022/08/29 08:10:49;;;;;;;8.40;5.20;;;;;;;23.45;63.79;100007.17;107705;1272;111579;-68
2022/08/29 08:13:23;;;;;;;10.10;5.60;;;;;;;23.39;63.03;100013.95;107684;1273;108850;-68
2022/08/29 08:15:55;;;;;;;7.60;5.50;;;;;;;23.23;62.39;100020.22;107553;1273;138478;-67
2022/08/29 08:18:28;;;;;;;9.10;5.70;;;;;;;23.06;62.41;100024.05;107703;1272;94680;-68
2022/08/29 08:21:00;;;;;;;9.10;5.40;;;;;;;22.96;62.67;100023.61;107594;1272;140424;-68
2022/08/29 08:23:32;;;;;;;8.20;5.60;;;;;;;22.84;62.51;100026.78;107250;1272;111080;-68
2022/08/29 08:26:05;;;;;;;8.00;5.60;;;;;;;22.71;62.72;100032.17;106208;1273;108814;-67
2022/08/29 08:28:37;;;;;;;9.00;5.40;;;;;;;22.61;62.81;100034.58;106053;1273;108867;-67
2022/08/29 08:31:11;;;;;;;8.30;5.40;;;;;;;22.53;63.09;100037.42;106055;1273;96692;-67
2022/08/29 08:33:46;;;;;;;8.10;5.50;;;;;;;22.51;63.30;100040.48;106064;1273;138029;-66
2022/08/29 08:36:21;;;;;;;10.40;6.30;;;;;;;22.57;63.35;100039.73;106230;1273;111277;-67
2022/08/29 08:38:55;;;;;;;12.10;6.10;;;;;;;22.68;63.09;100046.65;107420;1272;138501;-67
2022/08/29 08:41:37;;;;;;;9.20;6.30;;;;;;;22.66;62.81;100045.20;107597;1273;108922;-67
2022/08/29 08:44:33;;;;;;;14.40;6.00;;;;;;;22.55;62.38;100046.13;106035;1273;138784;-65
2022/08/29 08:47:09;;;;;;;13.00;6.80;;;;;;;22.29;62.38;100044.44;106148;1272;96598;-65
2022/08/29 08:49:48;;;;;;;13.00;6.70;;;;;;;22.13;62.94;100043.27;107429;1271;109311;-67
2022/08/29 08:52:27;;;;;;;12.00;7.40;;;;;;;21.99;63.16;100044.73;105995;1273;138564;-66
2022/08/29 08:55:04;;;;;;;11.70;7.10;;;;;;;21.88;63.42;100046.93;106391;1273;108865;-68
2022/08/29 08:57:45;;;;;;;10.50;7.30;;;;;;;21.88;63.59;100053.49;106056;1272;138492;-68
2022/08/29 09:00:17;;;;;;;11.40;7.50;;;;;;;21.89;63.50;100054.45;106175;1273;96483;-68
2022/08/29 09:03:02;;;;;;;14.80;8.10;;;;;;;21.89;63.43;100051.10;106027;1273;138589;-68
2022/08/29 09:05:48;;;;;;;13.70;8.00;;;;;;;21.91;63.33;100053.96;106198;1270;108598;-69
2022/08/29 09:08:29;;;;;;;12.70;8.10;;;;;;;22.27;63.39;100053.27;106137;1272;139059;-68
2022/08/29 09:11:08;;;;;;;9.50;7.30;;;;;;;22.52;62.73;100058.23;107634;1272;94733;-69
2022/08/29 09:13:53;;;;;;;9.90;7.40;;;;;;;22.77;62.57;100057.15;106422;1272;96517;-68
2022/08/29 09:16:30;;;;;;;13.80;6.80;;;;;;;23.76;62.09;100054.52;107168;1271;138686;-66
2022/08/29 09:19:06;;;;;;;8.30;5.70;;;;;;;24.92;60.47;100053.88;107271;1272;108965;-69
2022/08/29 09:21:47;;;;;;;9.70;5.50;;;;;;;25.64;57.66;100043.87;106058;1273;137546;-69
2022/08/29 09:24:27;;;;;;;11.50;5.40;;;;;;;25.81;56.13;100045.39;106267;1273;96491;-67
2022/08/29 09:26:59;;;;;;;7.30;5.00;;;;;;;25.96;55.36;100046.48;106536;1272;137508;-71
2022/08/29 09:29:32;;;;;;;9.90;4.50;;;;;;;26.09;54.06;100045.89;107258;1271;111226;-70
2022/08/29 09:32:12;;;;;;;5.50;3.70;;;;;;;25.93;52.70;100046.02;106180;1273;108784;-70
2022/08/29 09:34:50;;;;;;;8.60;4.10;;;;;;;25.77;52.42;100049.79;107728;1272;107480;-70
2022/08/29 09:37:39;;;;;;;8.10;4.50;;;;;;;26.12;53.07;100053.23;106594;1273;96485;-70
2022/08/29 09:40:17;;;;;;;7.00;4.20;;;;;;;26.91;52.26;100050.90;106081;1271;138224;-69
2022/08/29 09:43:02;;;;;;;8.20;3.90;;;;;;;27.36;51.32;100050.96;107430;1271;111034;-70
2022/08/29 09:45:34;;;;;;;7.30;3.90;;;;;;;27.50;49.98;100049.98;107707;1271;137489;-70
2022/08/29 09:48:18;;;;;;;7.00;4.20;;;;;;;27.77;49.26;100045.14;107727;1271;109135;-72
2022/08/29 09:50:50;;;;;;;8.60;3.60;;;;;;;28.18;48.16;100041.40;107534;1271;137716;-71
2022/08/29 09:53:25;;;;;;;5.40;3.50;;;;;;;28.43;47.79;100049.66;107029;1271;96480;-70
2022/08/29 09:56:07;;;;;;;7.60;4.20;;;;;;;28.82;47.47;100047.56;106711;1271;111984;-70
2022/08/29 09:58:41;;;;;;;5.90;3.70;;;;;;;29.26;45.34;100041.05;107386;1271;107779;-70
2022/08/29 10:01:20;;;;;;;6.70;3.70;;;;;;;29.66;44.38;100037.64;106230;1271;109069;-69
2022/08/29 10:04:01;;;;;;;6.00;3.40;;;;;;;30.10;43.87;100042.84;107633;1271;137572;-69
2022/08/29 10:06:38;;;;;;;5.20;3.50;;;;;;;30.58;43.24;100044.78;106620;1273;96336;-69
2022/08/29 10:09:27;;;;;;;5.80;3.00;;;;;;;30.99;42.27;100047.02;106186;1272;137507;-69
2022/08/29 10:12:05;;;;;;;7.30;3.00;;;;;;;31.38;41.23;100041.91;107720;1273;107469;-71
2022/08/29 10:14:43;;;;;;;10.40;3.20;;;;;;;31.37;40.67;100042.06;107344;1272;138156;-70
2022/08/29 10:20:19;;;;;;;9.00;3.10;;;;;;;31.47;39.67;100044.93;107620;1271;137921;-70
2022/08/29 10:23:03;;;;;;;6.90;3.30;;;;;;;31.03;39.21;100052.80;106665;1271;111003;-70
2022/08/29 10:25:39;;;;;;;6.00;3.10;;;;;;;30.50;39.27;100053.46;107628;1271;109159;-69
2022/08/29 10:28:20;;;;;;;6.80;2.80;;;;;;;30.30;39.05;100052.61;107381;1271;138401;-70
2022/08/29 10:30:56;;;;;;;5.20;2.80;;;;;;;30.02;39.38;100052.47;107044;1271;96494;-70
2022/08/29 10:33:33;;;;;;;;;;;;;;;29.81;39.84;100054.19;106353;1271;137319;-69
2022/08/29 10:36:12;;;;;;;6.80;2.70;;;;;;;29.78;40.39;100058.10;107767;1271;111262;-69
2022/08/29 10:38:49;;;;;;;8.00;2.90;;;;;;;30.31;40.46;100057.70;107652;1272;137655;-69
2022/08/29 10:41:32;;;;;;;5.50;2.60;;;;;;;30.67;39.36;100055.70;107738;1271;107942;-70
2022/08/29 10:44:19;;;;;;;4.00;2.40;;;;;;;30.10;38.71;100052.85;106636;1271;96504;-69
2022/08/29 10:47:03;;;;;;;4.60;2.50;;;;;;;29.92;38.20;100047.75;107754;1271;94805;-70
2022/08/29 10:49:45;;;;;;;8.20;2.90;;;;;;;29.51;38.09;100053.58;107774;1271;110014;-69
2022/08/29 10:52:26;;;;;;;6.20;2.60;;;;;;;29.32;39.21;100058.99;106300;1271;138231;-69
2022/08/29 10:55:08;;;;;;;5.20;2.80;;;;;;;29.32;39.14;100063.83;107402;1271;108749;-69
2022/08/29 10:58:02;;;;;;;4.90;2.60;;;;;;;29.06;39.19;100070.09;107605;1271;138722;-69
2022/08/29 11:00:42;;;;;;;8.90;3.10;;;;;;;28.76;38.86;100068.80;107563;1271;94558;-68
2022/08/29 11:03:28;;;;;;;6.80;2.30;;;;;;;28.78;39.33;100068.73;107100;1271;138351;-70
2022/08/29 11:06:04;;;;;;;6.80;2.30;;;;;;;28.89;39.05;100069.91;107778;1271;108942;-68
2022/08/29 11:08:44;;;;;;;5.30;2.90;;;;;;;29.04;38.99;100068.09;106821;1271;138094;-69
2022/08/29 11:11:21;;;;;;;5.80;2.70;;;;;;;29.20;38.32;100065.11;107172;1272;95030;-69
2022/08/29 11:13:58;;;;;;;7.10;2.80;;;;;;;29.17;37.93;100065.90;107735;1271;94766;-70
2022/08/29 11:16:42;;;;;;;4.50;2.10;;;;;;;28.88;37.89;100072.86;106993;1271;111147;-69
2022/08/29 11:19:19;;;;;;;5.10;2.30;;;;;;;28.65;37.42;100067.38;107184;1271;108826;-70
2022/08/29 11:21:58;;;;;;;5.00;2.50;;;;;;;28.32;37.77;100063.84;107513;1271;137753;-70
2022/08/29 11:24:35;;;;;;;5.00;2.60;;;;;;;28.01;38.11;100064.77;106617;1270;96579;-69
2022/08/29 11:27:19;;;;;;;4.10;2.40;;;;;;;28.03;38.64;100065.95;106049;1271;137814;-70
2022/08/29 11:30:05;;;;;;;4.40;2.30;;;;;;;28.22;39.08;100072.95;107767;1272;111159;-70
2022/08/29 11:32:51;;;;;;;4.40;2.30;;;;;;;28.28;38.32;100064.48;107627;1273;137913;-70
2022/08/29 11:35:31;;;;;;;7.00;2.20;;;;;;;28.32;38.52;100072.77;107785;1271;108854;-70
2022/08/29 11:38:17;;;;;;;6.10;2.50;;;;;;;28.37;37.69;100069.65;107759;1271;94878;-70
2022/08/29 11:41:03;;;;;;;4.10;2.30;;;;;;;28.33;37.79;100067.02;107723;1271;94468;-70
2022/08/29 11:44:04;;;;;;;6.20;2.40;;;;;;;28.35;37.49;100065.06;107694;1271;110063;-70
2022/08/29 11:46:42;;;;;;;4.00;2.80;;;;;;;28.24;37.83;100068.62;107097;1271;109013;-70
2022/08/29 11:49:32;;;;;;;5.30;2.70;;;;;;;28.29;37.88;100071.39;106729;1271;107764;-70
2022/08/29 11:52:19;;;;;;;9.90;2.80;;;;;;;28.34;37.73;100075.64;107573;1271;138297;-70